createdAt,value
2023-01-01T00:00:10.721Z,77.10
2023-01-01T00:05:08.384Z,73.80
2023-01-01T00:07:37.812Z,73.70
2023-01-01T00:10:24.648Z,74.00
2023-01-01T00:15:21.180Z,74.10
2023-01-01T00:17:49.264Z,78.70
2023-01-01T00:20:17.776Z,74.70
2023-01-01T00:22:55.682Z,74.40
2023-01-01T00:30:20.837Z,78.60
2023-01-01T00:32:54.864Z,79.10
2023-01-01T00:35:24.295Z,72.70
2023-01-01T00:37:54.104Z,78.10
2023-01-01T00:47:51.049Z,77.60
2023-01-01T00:50:19.554Z,77.60
2023-01-01T00:52:49.022Z,73.30
2023-01-01T00:55:19.055Z,73.30
2023-01-01T01:00:20.252Z,73.80
2023-01-01T01:02:48.543Z,78.90
2023-01-01T01:07:46.700Z,73.30
2023-01-01T01:10:14.857Z,79.00
2023-01-01T01:12:44.589Z,75.70
2023-01-01T01:15:12.948Z,74.20
2023-01-01T01:20:10.697Z,72.60
2023-01-01T01:25:08.911Z,71.80
2023-01-01T01:30:09.667Z,71.80
2023-01-01T01:32:37.905Z,70.50
2023-01-01T01:35:06.766Z,70.80
2023-01-01T01:37:34.912Z,69.50
2023-01-01T01:40:03.380Z,72.00
2023-01-01T01:45:01.520Z,71.70
2023-01-01T01:47:38.456Z,70.40
2023-01-01T01:50:12.521Z,72.00
2023-01-01T01:52:46.598Z,68.80
2023-01-01T01:55:15.344Z,71.80
2023-01-01T01:57:43.630Z,68.70
2023-01-01T02:00:13.437Z,67.20
2023-01-01T02:02:49.600Z,72.90
2023-01-01T02:05:19.755Z,72.20
2023-01-01T02:07:48.393Z,72.00
2023-01-01T02:10:16.498Z,68.60
2023-01-01T02:12:44.579Z,68.00
2023-01-01T02:17:48.719Z,66.40
2023-01-01T02:20:29.671Z,65.30
2023-01-01T02:23:26.025Z,65.00
2023-01-01T02:26:23.799Z,65.90
2023-01-01T02:29:02.420Z,71.50
2023-01-01T02:31:36.633Z,68.80
2023-01-01T02:34:08.880Z,65.10
2023-01-01T02:36:41.709Z,65.20
2023-01-01T02:39:11.878Z,65.50
2023-01-01T02:41:43.017Z,71.00
2023-01-01T02:44:12.691Z,66.10
2023-01-01T02:46:40.747Z,68.70
2023-01-01T02:51:55.074Z,67.80
2023-01-01T02:54:31.887Z,64.90
2023-01-01T02:57:08.935Z,65.40
2023-01-01T03:00:06.415Z,71.30
2023-01-01T03:02:50.439Z,65.50
2023-01-01T03:05:27.325Z,67.60
2023-01-01T03:08:05.759Z,64.80
2023-01-01T03:10:40.600Z,65.40
2023-01-01T03:13:16.573Z,65.00
2023-01-01T03:15:52.797Z,66.80
2023-01-01T03:18:28.041Z,67.90
2023-01-01T03:21:00.147Z,66.70
2023-01-01T03:23:35.701Z,66.30
2023-01-01T03:26:08.614Z,66.30
2023-01-01T03:28:40.614Z,65.30
2023-01-01T03:31:10.922Z,65.60
2023-01-01T03:33:43.069Z,65.80
2023-01-01T03:36:13.921Z,66.40
2023-01-01T03:38:44.576Z,70.00
2023-01-01T03:41:16.877Z,66.30
2023-01-01T03:43:52.883Z,66.90
2023-01-01T03:46:25.349Z,67.60
2023-01-01T03:49:04.071Z,67.60
2023-01-01T03:52:04.142Z,68.20
2023-01-01T03:54:44.459Z,68.50
2023-01-01T03:57:25.955Z,66.70
2023-01-01T04:00:01.022Z,67.10
2023-01-01T04:02:35.062Z,67.80
2023-01-01T04:05:04.980Z,73.00
2023-01-01T04:07:33.670Z,73.40
2023-01-01T04:10:17.188Z,72.60
2023-01-01T04:12:49.848Z,67.80
2023-01-01T04:15:18.527Z,68.00
2023-01-01T04:17:48.513Z,66.90
2023-01-01T04:20:17.161Z,67.90
2023-01-01T04:22:45.696Z,68.50
2023-01-01T04:25:14.607Z,67.90
2023-01-01T04:27:43.018Z,67.70
2023-01-01T04:30:13.954Z,68.20
2023-01-01T04:32:42.677Z,68.30
2023-01-01T04:35:16.626Z,74.50
2023-01-01T04:37:46.212Z,73.80
2023-01-01T04:40:15.021Z,68.90
2023-01-01T04:42:43.429Z,72.20
2023-01-01T04:45:15.249Z,68.70
2023-01-01T04:50:14.342Z,69.20
2023-01-01T04:52:43.545Z,69.70
2023-01-01T04:55:12.084Z,76.00
2023-01-01T05:00:10.037Z,70.30
2023-01-01T05:07:36.732Z,70.20
2023-01-01T05:10:05.479Z,72.90
2023-01-01T05:15:02.011Z,71.50
2023-01-01T05:17:30.610Z,75.40
2023-01-01T05:22:28.432Z,74.20
2023-01-01T05:24:58.022Z,70.40
2023-01-01T05:34:51.626Z,74.20
2023-01-01T05:42:18.935Z,72.80
2023-01-01T05:44:47.116Z,77.50
2023-01-01T05:47:17.529Z,77.70
2023-01-01T05:49:45.577Z,74.00
2023-01-01T05:52:13.661Z,74.90
2023-01-01T05:54:51.842Z,78.40
2023-01-01T05:57:21.293Z,73.00
2023-01-01T05:59:49.361Z,75.90
2023-01-01T06:04:46.034Z,79.20
2023-01-01T06:07:14.216Z,78.60
2023-01-01T06:09:42.294Z,78.30
2023-01-01T06:12:10.367Z,77.00
2023-01-01T06:14:39.957Z,79.30
2023-01-01T06:17:08.111Z,75.50
2023-01-01T06:27:07.976Z,76.40
2023-01-01T06:32:06.439Z,74.30
2023-01-01T06:39:35.602Z,75.50
2023-01-01T06:47:00.625Z,76.90
2023-01-01T06:49:30.376Z,76.10
2023-01-01T07:04:20.949Z,81.10
2023-01-01T07:06:50.372Z,75.20
2023-01-01T07:11:47.132Z,77.20
2023-01-01T07:16:43.920Z,78.00
2023-01-01T07:21:44.976Z,76.90
2023-01-01T07:24:16.146Z,74.80
2023-01-01T07:26:45.537Z,75.30
2023-01-01T07:29:14.019Z,79.50
2023-01-01T07:31:43.661Z,75.70
2023-01-01T07:34:14.903Z,79.50
2023-01-01T07:41:41.723Z,77.40
2023-01-01T07:46:38.589Z,80.20
2023-01-01T07:49:06.833Z,79.00
2023-01-01T07:51:35.250Z,77.80
2023-01-01T07:56:36.493Z,78.40
2023-01-01T07:59:06.571Z,80.30
2023-01-01T08:01:37.866Z,79.50
2023-01-01T08:04:06.543Z,80.00
2023-01-01T08:11:31.432Z,80.30
2023-01-01T08:16:29.502Z,81.80
2023-01-01T08:18:57.671Z,83.10
2023-01-01T08:21:25.904Z,83.00
2023-01-01T08:26:30.458Z,83.10
2023-01-01T08:33:57.220Z,83.30
2023-01-01T08:38:53.901Z,90.00
2023-01-01T08:51:17.640Z,86.60
2023-01-01T08:53:50.805Z,86.00
2023-01-01T08:56:20.893Z,86.10
2023-01-01T09:03:46.677Z,91.20
2023-01-01T09:06:15.251Z,85.50
2023-01-01T09:08:44.692Z,85.80
2023-01-01T09:11:23.517Z,91.10
2023-01-01T09:13:52.171Z,86.30
2023-01-01T09:21:17.772Z,86.50
2023-01-01T09:23:47.184Z,86.80
2023-01-01T09:28:43.608Z,88.20
2023-01-01T09:33:40.850Z,91.10
2023-01-01T09:36:17.062Z,86.50
2023-01-01T09:38:49.872Z,87.20
2023-01-01T09:41:26.842Z,86.30
2023-01-01T09:44:04.503Z,88.40
2023-01-01T09:46:33.399Z,86.60
2023-01-01T09:49:06.328Z,87.50
2023-01-01T09:51:43.235Z,87.10
2023-01-01T09:54:28.327Z,86.80
2023-01-01T09:56:58.650Z,86.70
2023-01-01T09:59:27.448Z,87.00
2023-01-01T10:02:01.409Z,86.70
2023-01-01T10:04:53.894Z,90.00
2023-01-01T10:07:30.419Z,86.30
2023-01-01T10:10:07.874Z,86.30
2023-01-01T10:12:44.564Z,91.00
2023-01-01T10:15:17.599Z,90.00
2023-01-01T10:17:47.812Z,86.40
2023-01-01T10:20:22.301Z,89.50
2023-01-01T10:22:55.271Z,90.70
2023-01-01T10:25:27.529Z,86.70
2023-01-01T10:28:00.501Z,85.50
2023-01-01T10:30:29.966Z,86.50
2023-01-01T10:32:59.254Z,87.00
2023-01-01T10:35:34.912Z,86.50
2023-01-01T10:38:06.018Z,86.20
2023-01-01T10:40:35.650Z,85.90
2023-01-01T10:43:04.741Z,86.50
2023-01-01T10:45:34.462Z,86.70
2023-01-01T10:48:17.978Z,86.70
2023-01-01T10:50:51.871Z,85.80
2023-01-01T10:53:28.754Z,86.20
2023-01-01T10:56:08.387Z,89.10
2023-01-01T10:58:42.101Z,86.20
2023-01-01T11:01:12.224Z,86.50
2023-01-01T11:03:54.954Z,86.70
2023-01-01T11:06:25.482Z,86.50
2023-01-01T11:08:56.548Z,86.90
2023-01-01T11:11:30.974Z,87.70
2023-01-01T11:14:01.405Z,86.10
2023-01-01T11:16:30.494Z,86.80
2023-01-01T11:19:04.631Z,87.10
2023-01-01T11:21:33.191Z,90.20
2023-01-01T11:24:26.896Z,88.40
2023-01-01T11:27:14.529Z,90.80
2023-01-01T11:32:18.002Z,87.50
2023-01-01T11:34:47.833Z,91.30
2023-01-01T11:37:26.730Z,87.40
2023-01-01T11:39:57.588Z,88.30
2023-01-01T11:42:29.695Z,88.80
2023-01-01T11:44:59.637Z,88.90
2023-01-01T11:47:31.058Z,88.30
2023-01-01T11:50:05.815Z,88.10
2023-01-01T11:52:39.318Z,88.50
2023-01-01T11:55:21.535Z,87.50
2023-01-01T11:58:00.213Z,88.40
2023-01-01T12:00:33.558Z,90.40
2023-01-01T12:03:06.688Z,88.20
2023-01-01T12:05:43.598Z,92.20
2023-01-01T12:08:16.316Z,89.40
2023-01-01T12:10:50.399Z,88.90
2023-01-01T12:13:25.597Z,89.20
2023-01-01T12:16:02.388Z,89.10
2023-01-01T12:18:36.897Z,88.80
2023-01-01T12:21:12.546Z,89.30
2023-01-01T12:23:41.568Z,89.30
2023-01-01T12:26:19.377Z,88.20
2023-01-01T12:29:08.928Z,89.00
2023-01-01T12:31:45.539Z,89.30
2023-01-01T12:34:20.649Z,88.70
2023-01-01T12:36:55.923Z,90.70
2023-01-01T12:39:56.654Z,89.30
2023-01-01T12:42:37.089Z,92.00
2023-01-01T12:45:35.740Z,89.40
2023-01-01T12:48:18.688Z,90.30
2023-01-01T12:51:01.470Z,92.10
2023-01-01T12:53:37.770Z,90.20
2023-01-01T12:56:22.581Z,92.70
2023-01-01T12:58:56.255Z,92.60
2023-01-01T13:01:33.146Z,90.00
2023-01-01T13:04:04.975Z,90.30
2023-01-01T13:06:39.160Z,90.70
2023-01-01T13:09:12.285Z,90.50
2023-01-01T13:11:45.291Z,90.30
2023-01-01T13:16:47.741Z,90.00
2023-01-01T13:19:31.863Z,90.20
2023-01-01T13:24:29.704Z,91.60
2023-01-01T13:29:43.599Z,90.60
2023-01-01T13:32:14.719Z,93.30
2023-01-01T13:35:01.802Z,91.80
2023-01-01T13:37:44.186Z,92.90
2023-01-01T13:40:50.956Z,90.60
2023-01-01T13:43:38.864Z,92.10
2023-01-01T13:46:12.303Z,93.50
2023-01-01T13:49:06.912Z,91.30
2023-01-01T13:52:09.219Z,90.80
2023-01-01T13:55:24.477Z,93.30
2023-01-01T13:58:25.402Z,90.90
2023-01-01T14:01:28.211Z,91.90
2023-01-01T14:03:57.941Z,93.70
2023-01-01T14:06:32.058Z,91.10
2023-01-01T14:09:06.370Z,90.90
2023-01-01T14:11:46.248Z,91.00
2023-01-01T14:14:28.405Z,93.80
2023-01-01T14:17:00.157Z,91.20
2023-01-01T14:19:29.052Z,91.70
2023-01-01T14:21:59.072Z,91.50
2023-01-01T14:24:29.047Z,93.60
2023-01-01T14:26:57.549Z,93.80
2023-01-01T14:29:28.874Z,91.10
2023-01-01T14:32:00.994Z,91.30
2023-01-01T14:34:31.261Z,91.50
2023-01-01T14:37:03.232Z,94.10
2023-01-01T14:39:33.351Z,91.20
2023-01-01T14:42:05.483Z,93.60
2023-01-01T14:44:37.758Z,91.60
2023-01-01T14:47:16.780Z,91.60
2023-01-01T14:49:45.584Z,91.80
2023-01-01T14:52:25.589Z,92.00
2023-01-01T14:54:55.371Z,91.80
2023-01-01T14:57:26.825Z,91.60
2023-01-01T14:59:56.581Z,91.80
2023-01-01T15:02:29.677Z,92.10
2023-01-01T15:04:59.056Z,92.00
2023-01-01T15:07:30.350Z,94.60
2023-01-01T15:10:00.548Z,92.10
2023-01-01T15:12:31.082Z,92.00
2023-01-01T15:17:28.943Z,92.60
2023-01-01T15:20:07.008Z,92.10
2023-01-01T15:22:40.060Z,92.20
2023-01-01T15:25:15.981Z,94.30
2023-01-01T15:30:24.992Z,91.90
2023-01-01T15:32:55.829Z,92.20
2023-01-01T15:35:31.906Z,92.80
2023-01-01T15:38:04.383Z,92.00
2023-01-01T15:40:35.859Z,92.30
2023-01-01T15:43:15.437Z,95.10
2023-01-01T15:45:51.924Z,92.60
2023-01-01T15:48:22.601Z,92.40
2023-01-01T15:51:17.676Z,92.40
2023-01-01T15:53:54.037Z,92.40
2023-01-01T15:56:25.561Z,92.50
2023-01-01T15:59:03.810Z,92.20
2023-01-01T16:01:43.163Z,92.30
2023-01-01T16:04:25.866Z,92.70
2023-01-01T16:06:58.945Z,94.40
2023-01-01T16:09:28.576Z,91.80
2023-01-01T16:11:59.307Z,91.80
2023-01-01T16:14:28.200Z,92.10
2023-01-01T16:17:00.735Z,92.80
2023-01-01T16:19:30.669Z,91.80
2023-01-01T16:21:58.829Z,94.10
2023-01-01T16:26:56.851Z,93.10
2023-01-01T16:29:25.288Z,91.90
2023-01-01T16:34:22.189Z,94.90
2023-01-01T16:39:18.755Z,95.30
2023-01-01T16:44:17.242Z,94.80
2023-01-01T16:46:45.706Z,97.80
2023-01-01T16:49:14.894Z,95.80
2023-01-01T16:56:40.726Z,97.80
2023-01-01T16:59:08.896Z,97.90
2023-01-01T17:01:38.390Z,96.10
2023-01-01T17:04:06.583Z,98.00
2023-01-01T17:11:31.569Z,99.10
2023-01-01T17:13:59.834Z,96.40
2023-01-01T17:19:17.172Z,97.40
2023-01-01T17:24:15.254Z,99.30
2023-01-01T17:29:12.268Z,99.40
2023-01-01T17:31:40.460Z,99.90
2023-01-01T17:34:14.259Z,99.90
2023-01-01T17:39:12.287Z,99.90
2023-01-01T17:41:41.075Z,99.90
2023-01-01T17:44:09.700Z,99.90
2023-01-01T17:51:39.475Z,99.90
2023-01-01T18:01:37.621Z,99.90
2023-01-01T18:04:07.798Z,99.90
2023-01-01T18:06:42.483Z,99.90
2023-01-01T18:09:13.413Z,99.90
2023-01-01T18:11:42.569Z,99.90
2023-01-01T18:14:11.840Z,99.90
2023-01-01T18:16:41.205Z,99.90
2023-01-01T18:21:39.330Z,99.90
2023-01-01T18:24:12.777Z,99.90
2023-01-01T18:36:38.155Z,99.90
2023-01-01T18:39:15.383Z,99.90
2023-01-01T18:42:19.212Z,99.90
2023-01-01T18:44:47.779Z,99.90
2023-01-01T18:47:17.714Z,99.90
2023-01-01T18:49:50.032Z,99.90
2023-01-01T18:52:27.021Z,99.90
2023-01-01T18:55:04.113Z,99.90
2023-01-01T18:57:32.919Z,99.90
2023-01-01T19:00:07.768Z,99.90
2023-01-01T19:02:39.517Z,99.90
2023-01-01T19:05:16.863Z,99.90
2023-01-01T19:07:51.915Z,99.90
2023-01-01T19:10:20.124Z,99.90
2023-01-01T19:12:49.729Z,99.90
2023-01-01T19:15:20.250Z,99.90
2023-01-01T19:20:20.232Z,99.90
2023-01-01T19:22:51.663Z,99.90
2023-01-01T19:25:36.757Z,99.90
2023-01-01T19:28:31.283Z,99.90
2023-01-01T19:33:29.069Z,99.90
2023-01-01T19:35:57.678Z,99.90
2023-01-01T19:38:27.296Z,99.90
2023-01-01T19:55:48.345Z,99.90
2023-01-01T20:00:44.779Z,99.90
2023-01-01T20:08:31.174Z,99.90
2023-01-01T20:11:01.321Z,99.90
2023-01-01T20:26:11.387Z,99.90
2023-01-01T20:31:25.497Z,99.90
2023-01-01T20:33:54.735Z,99.90
2023-01-01T20:39:11.001Z,99.90
2023-01-01T20:41:40.896Z,99.90
2023-01-01T20:49:07.018Z,99.90
2023-01-01T20:59:17.893Z,99.90
2023-01-01T21:01:51.693Z,99.90
2023-01-01T21:04:19.931Z,99.90
2023-01-01T21:09:17.016Z,99.90
2023-01-01T21:14:14.982Z,99.90
2023-01-01T21:16:44.939Z,99.90
2023-01-01T21:21:45.673Z,99.90
2023-01-01T21:24:22.727Z,99.90
2023-01-01T21:26:53.148Z,99.90
2023-01-01T21:29:25.374Z,99.90
2023-01-01T21:31:57.804Z,99.90
2023-01-01T21:34:38.295Z,99.90
2023-01-01T21:37:13.580Z,99.90
2023-01-01T21:42:23.727Z,99.90
2023-01-01T21:44:57.891Z,99.90
2023-01-01T21:47:26.763Z,99.90
2023-01-01T21:49:57.509Z,99.90
2023-01-01T21:52:26.553Z,99.90
2023-01-01T21:57:25.802Z,99.90
2023-01-01T21:59:55.325Z,99.90
2023-01-01T22:02:38.599Z,99.90
2023-01-01T22:05:31.104Z,99.90
2023-01-01T22:10:33.948Z,99.90
2023-01-01T22:13:02.276Z,99.90
2023-01-01T22:15:40.509Z,99.90
2023-01-01T22:18:20.494Z,99.90
2023-01-01T22:23:25.406Z,99.90
2023-01-01T22:25:53.974Z,99.90
2023-01-01T22:28:24.955Z,99.90
2023-01-01T22:30:58.766Z,99.90
2023-01-01T22:33:38.041Z,99.90
2023-01-01T22:36:14.666Z,99.90
2023-01-01T22:38:44.254Z,99.90
2023-01-01T22:41:13.829Z,99.90
2023-01-01T22:43:44.609Z,99.90
2023-01-01T22:46:23.870Z,99.90
2023-01-01T22:48:57.732Z,99.90
2023-01-01T22:51:32.023Z,99.90
2023-01-01T23:01:27.545Z,99.90
2023-01-01T23:08:54.039Z,99.90
2023-01-01T23:11:22.974Z,99.90
2023-01-01T23:14:10.548Z,99.90
2023-01-01T23:16:40.137Z,99.90
2023-01-01T23:21:39.040Z,99.90
2023-01-01T23:24:11.738Z,99.90
2023-01-01T23:26:41.043Z,99.90
2023-01-01T23:29:12.216Z,99.90
2023-01-01T23:31:42.936Z,99.90
2023-01-01T23:34:12.156Z,99.90
2023-01-01T23:36:41.627Z,99.90
2023-01-01T23:44:06.807Z,99.90
2023-01-01T23:46:36.205Z,99.90
2023-01-01T23:49:07.898Z,99.90
2023-01-01T23:51:37.199Z,99.90
2023-01-01T23:56:33.854Z,99.90
2023-01-01T23:59:02.125Z,99.90
